createdAt,value
2022-09-17T00:09:20.156Z,1.30
2022-09-17T00:23:20.174Z,1.30
2022-09-17T00:37:20.278Z,0.50
2022-09-17T00:51:20.257Z,1.70
2022-09-17T01:05:20.237Z,0.80
2022-09-17T01:19:20.259Z,0.70
2022-09-17T01:33:20.246Z,1.00
2022-09-17T01:47:21.002Z,0.50
2022-09-17T02:01:20.278Z,0.80
2022-09-17T02:15:20.262Z,0.30
2022-09-17T02:29:20.317Z,0.70
2022-09-17T02:43:20.289Z,1.00
2022-09-17T02:57:20.295Z,0.20
2022-09-17T03:11:20.358Z,0.40
2022-09-17T03:25:20.302Z,0.40
2022-09-17T03:39:20.286Z,0.20
2022-09-17T03:53:20.297Z,0.50
2022-09-17T04:07:20.309Z,0.50
2022-09-17T04:21:20.294Z,0.20
2022-09-17T04:35:20.313Z,1.30
2022-09-17T04:49:20.339Z,0.50
2022-09-17T05:04:20.319Z,1.00
2022-09-17T05:19:20.526Z,1.40
2022-09-17T05:34:20.482Z,0.20
2022-09-17T05:49:20.538Z,0.20
2022-09-17T06:04:20.559Z,0.20
2022-09-17T06:19:20.596Z,2.40
2022-09-17T06:34:20.575Z,5.20
2022-09-17T06:49:20.641Z,5.50
2022-09-17T07:04:20.700Z,4.10
2022-09-17T07:19:20.709Z,3.90
2022-09-17T07:35:20.704Z,3.20
2022-09-17T07:50:20.733Z,2.60
2022-09-17T08:05:20.737Z,2.30
2022-09-17T08:20:20.965Z,2.10
2022-09-17T08:35:20.927Z,4.50
2022-09-17T08:50:20.971Z,3.20
2022-09-17T09:05:20.953Z,5.20
2022-09-17T09:20:20.941Z,2.50
2022-09-17T09:35:21.013Z,2.10
2022-09-17T09:50:21.029Z,1.70
2022-09-17T10:05:21.192Z,1.60
2022-09-17T10:20:23.182Z,2.10
2022-09-17T10:35:21.130Z,1.80
2022-09-17T10:50:21.179Z,1.10
2022-09-17T11:05:21.207Z,0.90
2022-09-17T11:20:21.548Z,0.50
2022-09-17T11:35:21.393Z,1.10
2022-09-17T11:50:21.338Z,2.10
2022-09-17T12:05:21.277Z,3.30
2022-09-17T12:21:21.297Z,2.40
2022-09-17T12:36:21.219Z,1.60
2022-09-17T12:51:21.235Z,3.70
2022-09-17T13:07:21.259Z,3.90
2022-09-17T13:22:21.259Z,2.80
2022-09-17T13:37:21.270Z,3.10
2022-09-17T13:52:21.306Z,2.20
2022-09-17T14:07:21.315Z,2.60
2022-09-17T14:22:21.302Z,1.60
2022-09-17T14:37:21.333Z,0.90
2022-09-17T14:52:21.315Z,0.90
2022-09-17T15:07:21.300Z,0.80
2022-09-17T15:22:21.328Z,1.70
2022-09-17T15:38:23.080Z,1.60
2022-09-17T15:53:21.351Z,1.10
2022-09-17T16:08:21.455Z,2.60
2022-09-17T16:23:21.342Z,2.80
2022-09-17T16:38:21.374Z,4.80
2022-09-17T16:53:21.404Z,3.10
2022-09-17T17:08:21.418Z,3.70
2022-09-17T17:23:21.442Z,3.70
2022-09-17T17:39:21.487Z,3.40
2022-09-17T17:54:21.496Z,2.90
2022-09-17T18:08:21.564Z,3.10
2022-09-17T18:22:21.622Z,3.70
2022-09-17T18:36:21.608Z,4.60
2022-09-17T18:50:21.743Z,3.50
2022-09-17T19:04:21.670Z,3.00
2022-09-17T19:18:21.747Z,3.20
2022-09-17T19:32:21.744Z,2.30
2022-09-17T19:46:21.830Z,1.70
2022-09-17T20:00:21.813Z,3.60
2022-09-17T20:14:21.886Z,2.40
2022-09-17T20:28:21.927Z,1.70
2022-09-17T20:42:21.946Z,1.50
2022-09-17T20:56:21.946Z,1.60
2022-09-17T21:10:21.933Z,1.40
2022-09-17T21:24:21.945Z,1.80
2022-09-17T21:38:21.933Z,1.20
2022-09-17T21:52:22.080Z,1.10
2022-09-17T22:06:22.073Z,1.70
2022-09-17T22:20:22.078Z,0.90
2022-09-17T22:34:22.093Z,0.80
2022-09-17T22:48:22.124Z,1.10
2022-09-17T23:02:22.135Z,0.70
2022-09-17T23:16:22.202Z,0.50
2022-09-17T23:30:22.279Z,0.40
2022-09-17T23:44:22.254Z,0.40
2022-09-17T23:58:22.266Z,0.50
